createdAt,value
2019-05-10T00:01:03.684Z,11.20
2019-05-10T00:03:50.601Z,11.20
2019-05-10T00:06:37.712Z,11.20
2019-05-10T00:09:05.994Z,11.20
2019-05-10T00:11:36.824Z,11.20
2019-05-10T00:14:15.338Z,11.20
2019-05-10T00:16:45.764Z,11.20
2019-05-10T00:19:14.968Z,11.30
2019-05-10T00:21:44.055Z,11.30
2019-05-10T00:24:13.152Z,11.40
2019-05-10T00:26:42.247Z,11.40
2019-05-10T00:29:11.443Z,11.50
2019-05-10T00:31:40.556Z,11.60
2019-05-10T00:34:09.638Z,11.70
2019-05-10T00:36:38.727Z,11.80
2019-05-10T00:39:07.846Z,11.90
2019-05-10T00:41:37.025Z,12.00
2019-05-10T00:44:06.120Z,12.00
2019-05-10T00:46:35.326Z,12.10
2019-05-10T00:49:04.404Z,12.10
2019-05-10T00:51:33.498Z,12.20
2019-05-10T00:54:02.594Z,12.20
2019-05-10T00:56:31.605Z,12.20
2019-05-10T00:59:00.782Z,12.20
2019-05-10T01:01:32.541Z,12.20
2019-05-10T01:04:01.636Z,12.20
2019-05-10T01:06:30.729Z,12.20
2019-05-10T01:08:59.824Z,12.20
2019-05-10T01:11:28.920Z,12.20
2019-05-10T01:13:58.116Z,12.20
2019-05-10T01:16:27.212Z,12.20
2019-05-10T01:18:56.304Z,12.20
2019-05-10T01:21:25.401Z,12.20
2019-05-10T01:23:54.602Z,12.20
2019-05-10T01:26:23.691Z,12.20
2019-05-10T01:28:52.785Z,12.20
2019-05-10T01:31:22.190Z,12.30
2019-05-10T01:33:51.282Z,12.30
2019-05-10T01:36:23.381Z,12.30
2019-05-10T01:38:55.108Z,12.30
2019-05-10T01:41:24.302Z,12.30
2019-05-10T01:43:53.395Z,12.30
2019-05-10T01:46:22.502Z,12.30
2019-05-10T01:48:51.831Z,12.30
2019-05-10T01:51:20.885Z,12.30
2019-05-10T01:53:50.083Z,12.30
2019-05-10T01:56:25.687Z,12.30
2019-05-10T01:58:54.832Z,12.30
2019-05-10T02:01:23.935Z,12.30
2019-05-10T02:03:53.016Z,12.30
2019-05-10T02:06:24.556Z,12.20
2019-05-10T02:08:53.563Z,12.20
2019-05-10T02:11:22.758Z,12.10
2019-05-10T02:13:51.912Z,12.20
2019-05-10T02:16:21.047Z,12.10
2019-05-10T02:18:50.142Z,12.10
2019-05-10T02:21:19.339Z,12.00
2019-05-10T02:23:48.544Z,12.00
2019-05-10T02:26:17.639Z,12.00
2019-05-10T02:28:46.735Z,11.90
2019-05-10T02:31:21.241Z,11.90
2019-05-10T02:33:48.098Z,11.80
2019-05-10T02:36:17.186Z,11.80
2019-05-10T02:38:46.281Z,11.80
2019-05-10T02:41:15.476Z,11.80
2019-05-10T02:43:44.571Z,11.80
2019-05-10T02:46:14.150Z,11.80
2019-05-10T02:48:43.700Z,11.80
2019-05-10T02:51:12.856Z,11.80
2019-05-10T02:53:42.398Z,11.80
2019-05-10T02:56:29.604Z,11.80
2019-05-10T02:58:45.379Z,11.90
2019-05-10T03:01:16.942Z,11.90
2019-05-10T03:03:46.441Z,11.90
2019-05-10T03:06:18.313Z,11.90
2019-05-10T03:08:50.476Z,11.90
2019-05-10T03:11:20.209Z,12.00
2019-05-10T03:13:54.554Z,12.00
2019-05-10T03:16:24.614Z,12.00
2019-05-10T03:18:53.951Z,12.00
2019-05-10T03:21:24.503Z,12.10
2019-05-10T03:23:54.309Z,12.00
2019-05-10T03:26:23.532Z,12.00
2019-05-10T03:28:52.649Z,12.00
2019-05-10T03:31:21.850Z,12.00
2019-05-10T03:33:56.768Z,12.00
2019-05-10T03:36:21.571Z,12.00
2019-05-10T03:38:50.884Z,12.00
2019-05-10T03:41:20.101Z,12.00
2019-05-10T03:43:51.622Z,12.10
2019-05-10T03:46:20.678Z,12.00
2019-05-10T03:48:49.842Z,12.10
2019-05-10T03:51:21.467Z,12.10
2019-05-10T03:53:50.665Z,12.20
2019-05-10T03:56:19.754Z,12.20
2019-05-10T03:58:48.951Z,12.30
2019-05-10T04:01:18.046Z,12.40
2019-05-10T04:03:50.827Z,12.50
2019-05-10T04:06:19.923Z,12.60
2019-05-10T04:08:51.274Z,12.60
2019-05-10T04:11:20.369Z,12.70
2019-05-10T04:13:50.427Z,12.80
2019-05-10T04:16:19.577Z,12.90
2019-05-10T04:18:48.671Z,13.00
2019-05-10T04:21:17.871Z,13.10
2019-05-10T04:23:46.964Z,13.10
2019-05-10T04:26:18.284Z,13.10
2019-05-10T04:28:47.406Z,13.20
2019-05-10T04:31:17.525Z,13.20
2019-05-10T04:33:46.617Z,13.40
2019-05-10T04:36:15.713Z,13.40
2019-05-10T04:38:47.271Z,13.50
2019-05-10T04:41:17.290Z,13.50
2019-05-10T04:43:49.040Z,13.50
2019-05-10T04:46:18.131Z,13.60
2019-05-10T04:48:49.722Z,13.60
2019-05-10T04:51:18.779Z,13.60
2019-05-10T04:53:47.992Z,13.70
2019-05-10T04:56:17.173Z,13.70
2019-05-10T04:58:46.267Z,13.70
2019-05-10T05:01:15.467Z,13.70
2019-05-10T05:03:44.476Z,13.70
2019-05-10T05:06:13.764Z,13.70
2019-05-10T05:08:43.159Z,13.70
2019-05-10T05:11:13.277Z,13.80
2019-05-10T05:13:50.437Z,13.80
2019-05-10T05:16:19.579Z,13.90
2019-05-10T05:18:49.393Z,14.00
2019-05-10T05:21:19.399Z,14.00
2019-05-10T05:23:49.961Z,14.10
2019-05-10T05:26:20.346Z,14.10
2019-05-10T05:28:49.433Z,14.20
2019-05-10T05:31:19.553Z,14.30
2019-05-10T05:33:48.645Z,14.40
2019-05-10T05:36:17.906Z,14.40
2019-05-10T05:38:51.758Z,14.50
2019-05-10T05:41:21.779Z,14.60
2019-05-10T05:43:50.806Z,14.80
2019-05-10T05:46:22.413Z,14.90
2019-05-10T05:48:51.706Z,15.30
2019-05-10T05:51:20.875Z,15.70
2019-05-10T05:53:50.092Z,16.00
2019-05-10T05:56:19.308Z,16.20
2019-05-10T05:58:48.504Z,16.30
2019-05-10T06:01:26.347Z,16.50
2019-05-10T06:03:51.486Z,16.40
2019-05-10T06:06:23.459Z,16.20
2019-05-10T06:08:54.583Z,16.10
2019-05-10T06:11:21.866Z,16.00
2019-05-10T06:13:52.191Z,15.90
2019-05-10T06:16:22.322Z,16.00
2019-05-10T06:18:55.700Z,16.10
2019-05-10T06:21:28.468Z,16.10
2019-05-10T06:23:59.379Z,16.00
2019-05-10T06:26:29.161Z,16.00
2019-05-10T06:29:03.387Z,16.00
2019-05-10T06:31:34.780Z,16.10
2019-05-10T06:34:04.921Z,15.90
2019-05-10T06:36:34.009Z,15.90
2019-05-10T06:39:05.968Z,16.00
2019-05-10T06:41:35.163Z,15.90
2019-05-10T06:44:04.352Z,16.00
2019-05-10T06:46:33.566Z,16.10
2019-05-10T06:49:08.310Z,16.10
2019-05-10T06:51:36.191Z,16.30
2019-05-10T06:54:04.025Z,16.40
2019-05-10T06:56:33.110Z,16.50
2019-05-10T06:59:12.800Z,16.50
2019-05-10T07:01:38.388Z,16.60
2019-05-10T07:04:04.740Z,16.90
2019-05-10T07:06:41.574Z,17.10
2019-05-10T07:09:10.666Z,17.10
2019-05-10T07:11:40.891Z,17.20
2019-05-10T07:14:13.060Z,16.90
2019-05-10T07:16:42.154Z,16.90
2019-05-10T07:19:11.249Z,16.90
2019-05-10T07:21:50.676Z,16.80
2019-05-10T07:24:18.278Z,16.70
2019-05-10T07:26:49.282Z,16.60
2019-05-10T07:29:29.732Z,16.50
2019-05-10T07:31:55.099Z,16.30
2019-05-10T07:34:24.244Z,16.30
2019-05-10T07:36:54.368Z,16.30
2019-05-10T07:39:24.435Z,16.30
2019-05-10T07:41:54.503Z,16.30
2019-05-10T07:44:25.312Z,16.30
2019-05-10T07:46:58.099Z,16.50
2019-05-10T07:49:30.426Z,16.50
2019-05-10T07:52:02.214Z,16.50
2019-05-10T07:54:29.908Z,16.60
2019-05-10T07:56:59.002Z,16.70
2019-05-10T07:59:33.874Z,16.50
2019-05-10T08:02:06.093Z,16.50
2019-05-10T08:04:33.784Z,16.40
2019-05-10T08:07:02.897Z,16.10
2019-05-10T08:09:37.124Z,15.90
2019-05-10T08:12:06.777Z,15.80
2019-05-10T08:14:39.396Z,15.70
2019-05-10T08:17:10.228Z,15.60
2019-05-10T08:19:44.429Z,15.50
2019-05-10T08:22:16.892Z,15.40
2019-05-10T08:24:52.875Z,15.30
2019-05-10T08:27:17.599Z,15.30
2019-05-10T08:29:52.918Z,15.30
2019-05-10T08:32:19.351Z,15.40
2019-05-10T08:34:53.010Z,15.60
2019-05-10T08:37:31.048Z,15.80
2019-05-10T08:39:56.026Z,16.10
2019-05-10T08:42:43.422Z,16.30
2019-05-10T08:45:03.664Z,16.30
2019-05-10T08:47:32.251Z,16.20
2019-05-10T08:50:12.111Z,16.10
2019-05-10T08:55:02.710Z,16.00
2019-05-10T08:57:34.882Z,16.10
2019-05-10T09:00:09.089Z,16.30
2019-05-10T09:02:38.334Z,16.50
2019-05-10T09:05:07.776Z,16.30
2019-05-10T09:07:39.620Z,16.30
2019-05-10T09:10:09.799Z,16.40
2019-05-10T09:12:41.708Z,16.40
2019-05-10T09:15:13.814Z,16.30
2019-05-10T09:17:43.203Z,16.40
2019-05-10T09:20:20.858Z,16.60
2019-05-10T09:22:43.995Z,16.70
2019-05-10T09:25:13.728Z,16.70
2019-05-10T09:27:43.150Z,16.50
2019-05-10T09:30:18.118Z,16.50
2019-05-10T09:32:44.048Z,16.40
2019-05-10T09:35:13.394Z,16.40
2019-05-10T09:37:53.975Z,16.40
2019-05-10T09:40:16.974Z,16.20
2019-05-10T09:42:47.069Z,16.20
2019-05-10T09:45:16.299Z,16.20
2019-05-10T09:47:49.604Z,16.20
2019-05-10T09:50:24.542Z,16.20
2019-05-10T09:52:53.609Z,16.20
2019-05-10T09:55:25.005Z,16.20
2019-05-10T09:57:54.994Z,16.00
2019-05-10T10:00:32.417Z,16.00
2019-05-10T10:03:04.327Z,16.00
2019-05-10T10:05:33.417Z,16.10
2019-05-10T10:08:03.664Z,16.00
2019-05-10T10:10:33.348Z,16.10
2019-05-10T10:13:08.457Z,16.10
2019-05-10T10:15:34.245Z,16.10
2019-05-10T10:18:04.626Z,16.00
2019-05-10T10:20:35.882Z,15.90
2019-05-10T10:23:07.257Z,16.10
2019-05-10T10:25:40.609Z,16.20
2019-05-10T10:28:17.111Z,16.30
2019-05-10T10:30:39.138Z,16.30
2019-05-10T10:33:11.749Z,16.40
2019-05-10T10:35:42.624Z,16.50
2019-05-10T10:38:11.725Z,16.70
2019-05-10T10:40:44.672Z,16.90
2019-05-10T10:43:12.674Z,17.10
2019-05-10T10:45:41.870Z,17.40
2019-05-10T10:48:12.752Z,17.90
2019-05-10T10:50:44.211Z,18.10
2019-05-10T10:53:12.330Z,18.30
2019-05-10T10:55:46.123Z,18.50
2019-05-10T10:58:14.511Z,18.80
2019-05-10T11:00:44.635Z,19.00
2019-05-10T11:03:18.142Z,19.20
2019-05-10T11:05:48.247Z,19.40
2019-05-10T11:08:20.949Z,19.40
2019-05-10T11:10:50.715Z,19.10
2019-05-10T11:13:40.379Z,18.90
2019-05-10T11:15:59.037Z,18.90
2019-05-10T11:18:25.701Z,19.20
2019-05-10T11:20:54.795Z,19.40
2019-05-10T11:23:38.741Z,19.60
2019-05-10T11:26:12.039Z,19.60
2019-05-10T11:28:44.169Z,19.60
2019-05-10T11:31:12.796Z,19.40
2019-05-10T11:33:46.867Z,19.30
2019-05-10T11:36:12.508Z,19.40
2019-05-10T11:38:42.138Z,19.30
2019-05-10T11:41:21.286Z,19.10
2019-05-10T11:43:46.857Z,19.10
2019-05-10T11:46:15.951Z,19.10
2019-05-10T11:48:45.045Z,19.00
2019-05-10T11:51:17.596Z,18.70
2019-05-10T11:53:55.369Z,18.50
2019-05-10T11:56:28.105Z,18.30
2019-05-10T11:59:02.156Z,18.10
2019-05-10T12:01:33.091Z,18.10
2019-05-10T12:04:15.322Z,18.20
2019-05-10T12:06:41.259Z,18.20
2019-05-10T12:09:08.114Z,18.20
2019-05-10T12:11:43.798Z,18.40
2019-05-10T12:14:23.257Z,18.70
2019-05-10T12:16:45.579Z,19.00
2019-05-10T12:19:21.160Z,19.30
2019-05-10T12:26:49.078Z,19.50
2019-05-10T12:26:54.949Z,19.70
2019-05-10T12:27:25.317Z,19.60
2019-05-10T12:29:32.305Z,19.50
2019-05-10T12:32:02.528Z,19.30
2019-05-10T12:34:31.627Z,19.00
2019-05-10T12:37:06.309Z,18.80
2019-05-10T12:39:36.723Z,19.00
2019-05-10T12:42:05.870Z,19.00
2019-05-10T12:44:43.900Z,18.90
2019-05-10T12:47:11.390Z,18.70
2019-05-10T12:49:41.809Z,18.60
2019-05-10T12:52:14.286Z,18.40
2019-05-10T12:54:41.603Z,18.30
2019-05-10T12:57:10.677Z,18.30
2019-05-10T12:59:39.873Z,18.30
2019-05-10T13:02:10.926Z,18.40
2019-05-10T13:04:41.174Z,18.60
2019-05-10T13:07:10.438Z,18.70
2019-05-10T13:09:40.998Z,18.80
2019-05-10T13:12:10.266Z,18.90
2019-05-10T13:14:46.504Z,19.00
2019-05-10T13:17:17.189Z,19.10
2019-05-10T13:19:52.806Z,19.20
2019-05-10T13:22:23.845Z,19.50
2019-05-10T13:24:52.849Z,19.90
2019-05-10T13:27:27.051Z,20.20
2019-05-10T13:29:56.148Z,20.40
2019-05-10T13:32:25.243Z,20.60
2019-05-10T13:34:54.445Z,20.80
2019-05-10T13:37:25.189Z,20.90
2019-05-10T13:39:58.428Z,20.80
2019-05-10T13:42:36.778Z,20.80
2019-05-10T13:45:06.960Z,20.70
2019-05-10T13:47:41.828Z,20.40
2019-05-10T13:50:11.127Z,20.10
2019-05-10T13:52:42.349Z,19.90
2019-05-10T13:55:11.479Z,19.60
2019-05-10T13:57:41.588Z,19.30
2019-05-10T14:00:14.571Z,19.20
2019-05-10T14:02:52.718Z,19.10
2019-05-10T14:05:19.974Z,19.20
2019-05-10T14:07:51.804Z,19.20
2019-05-10T14:10:23.305Z,19.10
2019-05-10T14:12:59.793Z,18.90
2019-05-10T14:15:23.577Z,18.70
2019-05-10T14:17:52.675Z,18.60
2019-05-10T14:20:27.548Z,18.40
2019-05-10T14:22:58.958Z,18.30
2019-05-10T14:25:36.134Z,17.90
2019-05-10T14:28:01.357Z,17.70
2019-05-10T14:30:33.914Z,17.60
2019-05-10T14:33:03.113Z,17.50
2019-05-10T14:35:38.096Z,17.30
2019-05-10T14:38:10.327Z,17.20
2019-05-10T14:40:37.768Z,17.00
2019-05-10T14:43:07.894Z,17.00
2019-05-10T14:45:36.980Z,16.90
2019-05-10T14:48:06.076Z,16.80
2019-05-10T14:50:35.170Z,16.80
2019-05-10T14:53:07.746Z,16.90
2019-05-10T14:55:37.076Z,17.10
2019-05-10T14:58:07.473Z,17.40
2019-05-10T15:00:39.344Z,17.60
2019-05-10T15:03:08.543Z,17.90
2019-05-10T15:05:37.635Z,18.10
2019-05-10T15:08:06.821Z,18.20
2019-05-10T15:10:39.379Z,18.50
2019-05-10T15:13:07.671Z,18.60
2019-05-10T15:15:40.987Z,18.80
2019-05-10T15:18:15.333Z,19.10
2019-05-10T15:20:44.375Z,19.20
2019-05-10T15:23:14.421Z,19.20
2019-05-10T15:25:56.643Z,19.30
2019-05-10T15:28:15.140Z,19.20
2019-05-10T15:30:52.307Z,19.20
2019-05-10T15:33:18.247Z,19.00
2019-05-10T15:35:51.727Z,18.70
2019-05-10T15:38:18.073Z,18.60
2019-05-10T15:40:47.171Z,18.40
2019-05-10T15:43:18.650Z,18.20
2019-05-10T15:45:53.147Z,18.00
2019-05-10T15:48:21.722Z,17.80
2019-05-10T15:50:51.020Z,17.60
2019-05-10T15:53:25.541Z,17.40
2019-05-10T15:55:59.090Z,17.20
2019-05-10T15:58:30.552Z,17.00
2019-05-10T16:01:03.941Z,16.80
2019-05-10T16:03:33.016Z,16.70
2019-05-10T16:06:05.337Z,16.60
2019-05-10T16:08:35.326Z,16.60
2019-05-10T16:11:17.520Z,16.50
2019-05-10T16:13:37.660Z,16.40
2019-05-10T16:16:08.212Z,16.30
2019-05-10T16:18:40.526Z,16.20
2019-05-10T16:21:09.683Z,16.20
2019-05-10T16:23:41.456Z,16.10
2019-05-10T16:26:09.375Z,16.10
2019-05-10T16:28:38.473Z,16.10
2019-05-10T16:31:07.465Z,16.10
2019-05-10T16:33:36.661Z,16.10
2019-05-10T16:36:08.272Z,16.10
2019-05-10T16:38:36.384Z,16.10
2019-05-10T16:41:05.434Z,16.20
2019-05-10T16:43:35.603Z,16.20
2019-05-10T16:46:07.742Z,16.30
2019-05-10T16:48:38.842Z,16.30
2019-05-10T16:51:09.823Z,16.20
2019-05-10T16:53:43.805Z,16.10
2019-05-10T16:56:13.426Z,16.10
2019-05-10T16:58:47.629Z,15.90
2019-05-10T17:01:18.648Z,15.80
2019-05-10T17:03:44.947Z,15.70
2019-05-10T17:06:14.041Z,15.60
2019-05-10T17:08:45.820Z,15.50
2019-05-10T17:11:24.618Z,15.50
2019-05-10T17:13:55.614Z,15.50
2019-05-10T17:16:24.447Z,15.40
2019-05-10T17:18:56.819Z,15.40
2019-05-10T17:21:24.175Z,15.40
2019-05-10T17:23:53.271Z,15.30
2019-05-10T17:26:23.386Z,15.40
2019-05-10T17:28:53.607Z,15.40
2019-05-10T17:31:22.700Z,15.40
2019-05-10T17:33:51.793Z,15.30
2019-05-10T17:36:21.869Z,15.30
2019-05-10T17:38:55.473Z,15.30
2019-05-10T17:41:27.783Z,15.20
2019-05-10T17:43:57.493Z,15.10
2019-05-10T17:46:26.585Z,15.10
2019-05-10T17:48:55.681Z,15.00
2019-05-10T17:51:25.799Z,14.90
2019-05-10T17:54:00.939Z,14.90
2019-05-10T17:56:25.526Z,14.80
2019-05-10T17:58:54.619Z,14.70
2019-05-10T18:01:23.716Z,14.70
2019-05-10T18:06:25.866Z,14.60
2019-05-10T18:08:55.002Z,14.50
2019-05-10T18:11:27.469Z,14.40
2019-05-10T18:13:57.585Z,14.30
2019-05-10T18:16:30.410Z,14.20
2019-05-10T18:19:00.796Z,14.10
2019-05-10T18:21:33.130Z,14.00
2019-05-10T18:24:06.353Z,13.90
2019-05-10T18:26:39.577Z,13.80
2019-05-10T18:29:08.552Z,13.70
2019-05-10T18:31:37.740Z,13.60
2019-05-10T18:34:06.865Z,13.50
2019-05-10T18:36:51.184Z,13.50
2019-05-10T18:39:09.233Z,13.40
2019-05-10T18:41:46.446Z,13.30
2019-05-10T18:44:15.845Z,13.30
2019-05-10T18:46:47.456Z,13.20
2019-05-10T18:49:16.558Z,13.20
2019-05-10T18:51:45.863Z,13.20
2019-05-10T18:54:18.338Z,13.30
2019-05-10T18:56:55.001Z,13.30
2019-05-10T18:59:25.986Z,13.40
2019-05-10T19:01:55.149Z,13.40
2019-05-10T19:04:26.396Z,13.50
2019-05-10T19:07:09.263Z,13.50
2019-05-10T19:09:30.635Z,13.50
2019-05-10T19:11:59.897Z,13.60
2019-05-10T19:14:32.822Z,13.50
2019-05-10T19:17:03.970Z,13.50
2019-05-10T19:19:35.356Z,13.40
2019-05-10T19:22:08.918Z,13.30
2019-05-10T19:24:37.574Z,13.20
2019-05-10T19:27:10.150Z,13.10
2019-05-10T19:29:45.802Z,13.00
2019-05-10T19:32:11.565Z,12.90
2019-05-10T19:34:48.319Z,12.80
2019-05-10T19:37:27.936Z,12.70
2019-05-10T19:39:45.655Z,12.70
2019-05-10T19:42:15.771Z,12.60
2019-05-10T19:44:44.880Z,12.60
2019-05-10T19:47:17.775Z,12.50
2019-05-10T19:49:51.571Z,12.50
2019-05-10T19:52:21.374Z,12.40
2019-05-10T19:54:53.796Z,12.40
2019-05-10T19:57:23.855Z,12.30
2019-05-10T19:59:54.386Z,12.30
2019-05-10T20:02:23.484Z,12.20
2019-05-10T20:04:55.449Z,12.10
2019-05-10T20:07:24.790Z,12.10
2019-05-10T20:09:53.952Z,12.00
2019-05-10T20:12:23.033Z,12.00
2019-05-10T20:14:54.701Z,11.80
2019-05-10T20:17:27.718Z,11.80
2019-05-10T20:19:57.090Z,11.70
2019-05-10T20:22:27.192Z,11.70
2019-05-10T20:24:56.492Z,11.60
2019-05-10T20:27:28.866Z,11.60
2019-05-10T20:29:57.958Z,11.60
2019-05-10T20:32:27.053Z,11.60
2019-05-10T20:34:56.304Z,11.50
2019-05-10T20:37:25.451Z,11.50
2019-05-10T20:39:59.358Z,11.50
2019-05-10T20:42:28.450Z,11.40
2019-05-10T20:45:07.332Z,11.40
2019-05-10T20:47:37.730Z,11.40
2019-05-10T20:50:08.283Z,11.40
2019-05-10T20:52:40.010Z,11.40
2019-05-10T20:55:13.714Z,11.40
2019-05-10T20:57:47.571Z,11.40
2019-05-10T21:00:24.041Z,11.40
2019-05-10T21:02:54.590Z,11.40
2019-05-10T21:05:30.768Z,11.50
2019-05-10T21:08:00.283Z,11.40
2019-05-10T21:10:35.532Z,11.30
2019-05-10T21:13:04.577Z,11.40
2019-05-10T21:15:33.913Z,11.30
2019-05-10T21:18:03.802Z,11.20
2019-05-10T21:20:41.125Z,11.10
2019-05-10T21:23:14.008Z,11.00
2019-05-10T21:25:49.105Z,10.90
2019-05-10T21:28:19.994Z,10.90
2019-05-10T21:30:53.474Z,10.80
2019-05-10T21:33:20.096Z,10.80
2019-05-10T21:35:49.419Z,10.80
2019-05-10T21:38:32.075Z,10.80
2019-05-10T21:40:49.306Z,10.80
2019-05-10T21:43:18.399Z,10.60
2019-05-10T21:45:51.695Z,10.60
2019-05-10T21:48:20.953Z,10.60
2019-05-10T21:50:50.296Z,10.50
2019-05-10T21:53:21.549Z,10.50
2019-05-10T21:55:50.680Z,10.50
2019-05-10T21:58:19.742Z,10.50
2019-05-10T22:00:56.523Z,10.50
2019-05-10T22:03:25.704Z,10.40
2019-05-10T22:05:54.799Z,10.40
2019-05-10T22:08:23.894Z,10.40
2019-05-10T22:10:54.031Z,10.40
2019-05-10T22:13:23.142Z,10.40
2019-05-10T22:15:52.205Z,10.40
2019-05-10T22:18:21.398Z,10.50
2019-05-10T22:20:52.944Z,10.50
2019-05-10T22:23:23.372Z,10.60
2019-05-10T22:25:55.281Z,10.70
2019-05-10T22:28:24.334Z,10.70
2019-05-10T22:30:53.622Z,10.80
2019-05-10T22:33:22.718Z,10.90
2019-05-10T22:35:52.939Z,10.90
2019-05-10T22:38:22.062Z,11.00
2019-05-10T22:40:54.405Z,11.10
2019-05-10T22:43:24.544Z,11.10
2019-05-10T22:45:53.622Z,11.20
2019-05-10T22:48:23.739Z,11.20
2019-05-10T22:50:52.832Z,11.30
2019-05-10T22:53:21.932Z,11.30
2019-05-10T22:55:51.128Z,11.40
2019-05-10T22:58:21.141Z,11.40
2019-05-10T23:00:50.378Z,11.50
2019-05-10T23:03:24.416Z,11.50
2019-05-10T23:05:51.906Z,11.50
2019-05-10T23:08:21.003Z,11.50
2019-05-10T23:10:50.125Z,11.60
2019-05-10T23:13:19.291Z,11.60
2019-05-10T23:15:48.640Z,11.60
2019-05-10T23:18:17.788Z,11.60
2019-05-10T23:20:46.988Z,11.70
2019-05-10T23:23:20.946Z,11.60
2019-05-10T23:25:51.383Z,11.60
2019-05-10T23:28:20.517Z,11.70
2019-05-10T23:30:49.613Z,11.60
2019-05-10T23:33:18.704Z,11.60
2019-05-10T23:35:55.173Z,11.60
2019-05-10T23:38:25.026Z,11.60
2019-05-10T23:40:54.179Z,11.50
2019-05-10T23:43:23.184Z,11.50
2019-05-10T23:45:52.372Z,11.50
2019-05-10T23:48:21.466Z,11.50
2019-05-10T23:50:50.566Z,11.50
2019-05-10T23:53:19.658Z,11.50
2019-05-10T23:55:48.753Z,11.40
2019-05-10T23:58:17.850Z,11.50
